메인 페이지
METAR-TAF:

METAR-TAF

공항 :

쿠알라룸푸르 국제공항

쿠알라룸푸르, 말레이시아

위도: 02-44N, 경도: 101-42E, 고도: 21m

현재 날씨관측

예보는 23분 전, 20:30시(UTC)에 발표되었습니다.
여러 방향의 바람 3kt
온도 28°C
습도 84%
기압 1007 hPa
시정: 8000m
고도 1700ft 상공 구름 조금, 적란운.
고도 14000ft 상공 구름 보통
고도 28000ft 상공 구름 많음

METAR: WMKK 202030Z VRB03KT 8000 FEW017CB SCT140 BKN280 28/25 Q1007 NOSIG

시각: 04:53 (20:53 UTC)

예보

예보는 3 시간 53분 전, 17:00시(UTC)에 발표되었습니다.
예보 대상 시간: 20일 18시부터 22일 00시까지 (UTC)
5kt
시정: 8000m
고도 1700ft 상공 구름 조금, 적란운.
전환 중
21일 00시부터 21일 02시까지 (UTC)
10kt
시정 10km 이상
고도 1800ft 상공 구름 조금
전환 중
21일 06시부터 21일 08시까지 (UTC)
고도 1700ft 상공 구름 조금, 적란운.
전환 중
21일 12시부터 21일 13시까지 (UTC)
고도 2500ft 상공 구름 조금

TAF: WMKK 201700Z 2018/2200 18005KT 8000 FEW017CB BECMG 2100/2102 17010KT 9999 FEW018 BECMG 2106/2108 FEW017CB BECMG 2112/2113 FEW025

4,000개 이상의 공항 관측 자료 및 예보 (METAR 및 TAF 보고).

지도상에서 검색 가능한 기상관측소가 노란 점과 빨간 점으로 표시되어 있습니다.

기상관측소 명을 보려면 표시 위로 마우스를 이동하세요.

날씨 관측과 예보를 보려면 클릭하세요.

지도 변경 : 확대하려면 엑스 표시가 있는 녹색 버튼, 축소하려면 빼기 표시가 있는 녹색 버튼, 다음 페이지의 지도를 보려면 녹색 화살표를 클릭하세요.


METAR-TAF: